createdAt,value
2022-11-27T00:01:25.793Z,2.80
2022-11-27T00:03:54.501Z,2.80
2022-11-27T00:06:24.163Z,2.80
2022-11-27T00:08:51.085Z,2.80
2022-11-27T00:11:23.660Z,2.80
2022-11-27T00:13:51.469Z,2.80
2022-11-27T00:16:19.889Z,2.80
2022-11-27T00:18:47.155Z,2.80
2022-11-27T00:21:16.781Z,2.90
2022-11-27T00:23:43.996Z,2.90
2022-11-27T00:26:11.350Z,2.90
2022-11-27T00:28:38.703Z,2.90
2022-11-27T00:31:21.877Z,2.90
2022-11-27T00:33:49.238Z,2.90
2022-11-27T00:36:16.832Z,2.90
2022-11-27T00:38:43.938Z,2.90
2022-11-27T00:41:17.669Z,2.90
2022-11-27T00:43:45.592Z,2.90
2022-11-27T00:46:14.519Z,2.90
2022-11-27T00:48:42.158Z,2.90
2022-11-27T00:51:19.796Z,2.90
2022-11-27T00:53:47.372Z,2.90
2022-11-27T00:56:20.692Z,3.00
2022-11-27T00:58:48.165Z,3.00
2022-11-27T01:01:23.652Z,3.00
2022-11-27T01:03:51.328Z,3.00
2022-11-27T01:06:19.478Z,3.00
2022-11-27T01:08:47.258Z,3.00
2022-11-27T01:11:28.599Z,3.00
2022-11-27T01:13:57.118Z,3.00
2022-11-27T01:16:26.786Z,3.00
2022-11-27T01:18:57.605Z,3.00
2022-11-27T01:21:26.279Z,3.00
2022-11-27T01:23:54.574Z,3.00
2022-11-27T01:26:22.319Z,3.00
2022-11-27T01:28:52.328Z,3.00
2022-11-27T01:31:22.467Z,3.00
2022-11-27T01:33:54.175Z,3.00
2022-11-27T01:36:21.364Z,3.00
2022-11-27T01:38:48.277Z,3.00
2022-11-27T01:41:21.657Z,3.00
2022-11-27T01:43:51.566Z,3.00
2022-11-27T01:46:42.854Z,3.00
2022-11-27T01:49:09.747Z,3.00
2022-11-27T01:51:52.511Z,3.00
2022-11-27T01:54:21.881Z,3.10
2022-11-27T01:56:52.040Z,3.00
2022-11-27T01:59:19.470Z,3.00
2022-11-27T02:01:46.377Z,3.00
2022-11-27T02:04:13.381Z,3.10
2022-11-27T02:06:40.307Z,3.10
2022-11-27T02:09:07.225Z,3.10
2022-11-27T02:11:43.324Z,3.10
2022-11-27T02:14:28.908Z,3.10
2022-11-27T02:17:15.242Z,3.00
2022-11-27T02:20:12.009Z,3.00
2022-11-27T02:22:47.631Z,3.00
2022-11-27T02:26:08.673Z,3.00
2022-11-27T02:28:59.050Z,2.90
2022-11-27T02:31:40.363Z,2.90
2022-11-27T02:34:28.320Z,2.90
2022-11-27T02:37:08.945Z,2.90
2022-11-27T02:40:03.700Z,2.90
2022-11-27T02:42:38.476Z,2.90
2022-11-27T02:45:16.662Z,2.80
2022-11-27T02:47:47.167Z,2.90
2022-11-27T02:50:19.658Z,2.80
2022-11-27T02:52:49.196Z,2.80
2022-11-27T02:55:20.246Z,2.70
2022-11-27T02:57:50.837Z,2.70
2022-11-27T03:00:18.094Z,2.70
2022-11-27T03:02:51.064Z,2.70
2022-11-27T03:05:21.781Z,2.70
2022-11-27T03:07:52.637Z,2.70
2022-11-27T03:10:31.781Z,2.70
2022-11-27T03:12:59.885Z,2.70
2022-11-27T03:15:39.673Z,2.70
2022-11-27T03:18:23.108Z,2.70
2022-11-27T03:20:56.964Z,2.80
2022-11-27T03:23:23.819Z,2.80
2022-11-27T03:25:50.733Z,2.80
2022-11-27T03:28:17.680Z,2.80
2022-11-27T03:30:44.512Z,2.80
2022-11-27T03:33:11.781Z,2.90
2022-11-27T03:35:38.727Z,2.90
2022-11-27T03:38:05.852Z,3.00
2022-11-27T03:40:56.692Z,3.10
2022-11-27T03:43:27.656Z,3.20
2022-11-27T03:46:23.763Z,3.30
2022-11-27T03:49:02.817Z,3.50
2022-11-27T03:51:44.875Z,3.50
2022-11-27T03:54:20.560Z,3.60
2022-11-27T03:57:22.008Z,3.60
2022-11-27T03:59:52.944Z,3.70
2022-11-27T04:02:38.626Z,3.70
2022-11-27T04:05:05.921Z,3.80
2022-11-27T04:07:32.805Z,3.80
2022-11-27T04:09:59.620Z,3.90
2022-11-27T04:12:26.443Z,4.00
2022-11-27T04:14:53.254Z,4.00
2022-11-27T04:17:20.240Z,4.10
2022-11-27T04:19:47.257Z,4.00
2022-11-27T04:22:14.093Z,4.10
2022-11-27T04:24:41.160Z,4.10
2022-11-27T04:27:08.131Z,4.10
2022-11-27T04:29:36.559Z,4.10
2022-11-27T04:32:04.516Z,4.10
2022-11-27T04:34:32.199Z,4.20
2022-11-27T04:36:59.341Z,4.10
2022-11-27T04:39:26.607Z,4.20
2022-11-27T04:41:53.522Z,4.20
2022-11-27T04:44:22.681Z,4.20
2022-11-27T04:46:50.244Z,4.30
2022-11-27T04:49:17.300Z,4.30
2022-11-27T04:51:44.231Z,4.30
2022-11-27T04:54:11.201Z,4.30
2022-11-27T04:56:38.089Z,4.30
2022-11-27T04:59:05.476Z,4.30
2022-11-27T05:01:32.551Z,4.40
2022-11-27T05:03:59.478Z,4.40
2022-11-27T05:06:26.350Z,4.40
2022-11-27T05:08:59.955Z,4.40
2022-11-27T05:11:26.995Z,4.40
2022-11-27T05:14:14.108Z,4.40
2022-11-27T05:16:42.023Z,4.40
2022-11-27T05:19:10.684Z,4.40
2022-11-27T05:21:38.596Z,4.40
2022-11-27T05:24:05.870Z,4.40
2022-11-27T05:26:33.212Z,4.40
2022-11-27T05:29:00.406Z,4.40
2022-11-27T05:31:27.635Z,4.40
2022-11-27T05:33:54.635Z,4.40
2022-11-27T05:36:21.684Z,4.40
2022-11-27T05:38:48.609Z,4.40
2022-11-27T05:41:15.516Z,4.40
2022-11-27T05:43:42.385Z,4.50
2022-11-27T05:46:12.233Z,4.50
2022-11-27T05:48:39.211Z,4.50
2022-11-27T05:51:06.292Z,4.50
2022-11-27T05:53:33.833Z,4.50
2022-11-27T05:56:12.949Z,4.50
2022-11-27T05:58:40.698Z,4.40
2022-11-27T06:01:09.146Z,4.40
2022-11-27T06:03:39.007Z,4.40
2022-11-27T06:06:08.054Z,4.50
2022-11-27T06:08:36.863Z,4.50
2022-11-27T06:11:12.518Z,4.50
2022-11-27T06:13:39.388Z,4.50
2022-11-27T06:16:15.576Z,4.40
2022-11-27T06:18:43.116Z,4.40
2022-11-27T06:21:14.721Z,4.40
2022-11-27T06:23:42.850Z,4.40
2022-11-27T06:26:22.358Z,4.40
2022-11-27T06:28:49.922Z,4.40
2022-11-27T06:31:20.012Z,4.40
2022-11-27T06:33:49.154Z,4.40
2022-11-27T06:36:17.557Z,4.40
2022-11-27T06:38:45.097Z,4.40
2022-11-27T06:41:14.696Z,4.30
2022-11-27T06:43:42.108Z,4.30
2022-11-27T06:46:13.627Z,4.30
2022-11-27T06:48:40.882Z,4.30
2022-11-27T06:51:09.950Z,4.30
2022-11-27T06:53:37.814Z,4.30
2022-11-27T06:56:16.032Z,4.30
2022-11-27T06:58:43.692Z,4.20
2022-11-27T07:01:16.885Z,4.20
2022-11-27T07:03:44.645Z,4.30
2022-11-27T07:06:15.281Z,4.20
2022-11-27T07:08:42.386Z,4.30
2022-11-27T07:11:12.967Z,4.20
2022-11-27T07:13:40.174Z,4.20
2022-11-27T07:16:09.975Z,4.20
2022-11-27T07:18:45.168Z,4.20
2022-11-27T07:21:12.513Z,4.20
2022-11-27T07:23:39.589Z,4.20
2022-11-27T07:26:08.711Z,4.20
2022-11-27T07:28:35.688Z,4.10
2022-11-27T07:31:03.295Z,4.20
2022-11-27T07:33:30.350Z,4.20
2022-11-27T07:36:02.698Z,4.10
2022-11-27T07:38:29.666Z,4.20
2022-11-27T07:41:00.835Z,4.10
2022-11-27T07:43:28.657Z,4.10
2022-11-27T07:45:56.067Z,4.10
2022-11-27T07:48:23.270Z,4.10
2022-11-27T07:50:50.126Z,4.10
2022-11-27T07:53:17.226Z,4.10
2022-11-27T07:55:44.040Z,4.10
2022-11-27T07:58:10.928Z,4.10
2022-11-27T08:00:38.299Z,4.10
2022-11-27T08:03:05.269Z,4.10
2022-11-27T08:05:35.582Z,4.10
2022-11-27T08:08:04.411Z,4.10
2022-11-27T08:10:34.702Z,4.10
2022-11-27T08:13:01.674Z,4.10
2022-11-27T08:15:28.566Z,4.10
2022-11-27T08:17:55.475Z,4.10
2022-11-27T08:20:23.024Z,4.10
2022-11-27T08:22:50.214Z,4.10
2022-11-27T08:25:17.735Z,4.10
2022-11-27T08:27:44.767Z,4.10
2022-11-27T08:30:11.904Z,4.10
2022-11-27T08:32:40.566Z,4.10
2022-11-27T08:35:07.862Z,4.10
2022-11-27T08:37:35.246Z,4.10
2022-11-27T08:40:02.505Z,4.10
2022-11-27T08:42:29.486Z,4.10
2022-11-27T08:44:56.465Z,4.10
2022-11-27T08:47:23.339Z,4.20
2022-11-27T08:49:50.381Z,4.20
2022-11-27T08:52:17.381Z,4.20
2022-11-27T08:54:44.275Z,4.30
2022-11-27T08:57:11.083Z,4.30
2022-11-27T08:59:37.991Z,4.30
2022-11-27T09:02:04.898Z,4.30
2022-11-27T09:04:31.913Z,4.40
2022-11-27T09:06:58.993Z,4.40
2022-11-27T09:09:25.968Z,4.40
2022-11-27T09:11:54.721Z,4.50
2022-11-27T09:14:21.654Z,4.50
2022-11-27T09:16:48.680Z,4.50
2022-11-27T09:19:15.768Z,4.50
2022-11-27T09:21:42.619Z,4.50
2022-11-27T09:24:09.882Z,4.50
2022-11-27T09:26:36.806Z,4.50
2022-11-27T09:29:04.103Z,4.50
2022-11-27T09:31:31.065Z,4.50
2022-11-27T09:33:58.633Z,4.60
2022-11-27T09:36:26.726Z,4.60
2022-11-27T09:38:54.358Z,4.60
2022-11-27T09:41:38.719Z,4.50
2022-11-27T09:44:14.921Z,4.50
2022-11-27T09:46:43.576Z,4.40
2022-11-27T09:49:15.673Z,4.40
2022-11-27T09:51:55.063Z,4.40
2022-11-27T09:54:54.898Z,4.40
2022-11-27T09:57:31.511Z,4.40
2022-11-27T10:00:10.602Z,4.50
2022-11-27T10:02:37.551Z,4.50
2022-11-27T10:05:14.424Z,4.50
2022-11-27T10:08:07.233Z,4.50
2022-11-27T10:10:57.007Z,4.60
2022-11-27T10:13:32.512Z,4.60
2022-11-27T10:16:03.169Z,4.60
2022-11-27T10:18:40.663Z,4.60
2022-11-27T10:21:14.973Z,4.60
2022-11-27T10:24:09.923Z,4.60
2022-11-27T10:26:52.016Z,4.60
2022-11-27T10:29:45.718Z,4.60
2022-11-27T10:32:53.025Z,4.60
2022-11-27T10:35:18.292Z,4.60
2022-11-27T10:38:07.368Z,4.70
2022-11-27T10:40:43.531Z,4.70
2022-11-27T10:43:18.528Z,4.60
2022-11-27T10:46:17.621Z,4.60
2022-11-27T10:48:44.500Z,4.60
2022-11-27T10:51:32.196Z,4.70
2022-11-27T10:54:00.825Z,4.60
2022-11-27T10:56:47.859Z,4.60
2022-11-27T10:59:33.183Z,4.60
2022-11-27T11:02:03.400Z,4.60
2022-11-27T11:04:37.940Z,4.60
2022-11-27T11:07:26.697Z,4.60
2022-11-27T11:09:54.780Z,4.60
2022-11-27T11:12:23.530Z,4.60
2022-11-27T11:14:52.868Z,4.60
2022-11-27T11:17:34.877Z,4.60
2022-11-27T11:20:22.337Z,4.60
2022-11-27T11:22:49.715Z,4.60
2022-11-27T11:25:21.726Z,4.60
2022-11-27T11:27:51.277Z,4.70
2022-11-27T11:30:28.625Z,4.60
2022-11-27T11:33:03.317Z,4.60
2022-11-27T11:35:35.622Z,4.70
2022-11-27T11:38:16.230Z,4.60
2022-11-27T11:40:46.734Z,4.70
2022-11-27T11:43:27.437Z,4.70
2022-11-27T11:45:56.295Z,4.60
2022-11-27T11:48:25.564Z,4.60
2022-11-27T11:50:58.664Z,4.60
2022-11-27T11:53:42.645Z,4.60
2022-11-27T11:56:37.706Z,4.60
2022-11-27T11:59:22.570Z,4.60
2022-11-27T12:02:03.885Z,4.60
2022-11-27T12:04:48.621Z,4.50
2022-11-27T12:07:43.078Z,4.50
2022-11-27T12:10:22.555Z,4.50
2022-11-27T12:13:19.081Z,4.50
2022-11-27T12:16:04.757Z,4.40
2022-11-27T12:18:57.945Z,4.50
2022-11-27T12:21:38.702Z,4.40
2022-11-27T12:24:29.375Z,4.40
2022-11-27T12:27:04.876Z,4.40
2022-11-27T12:29:52.906Z,4.30
2022-11-27T12:32:52.439Z,4.30
2022-11-27T12:35:19.691Z,4.20
2022-11-27T12:38:17.333Z,4.20
2022-11-27T12:41:02.912Z,4.20
2022-11-27T12:43:36.072Z,4.10
2022-11-27T12:46:09.063Z,4.10
2022-11-27T12:49:00.670Z,4.10
2022-11-27T12:51:32.166Z,4.10
2022-11-27T12:54:04.560Z,4.00
2022-11-27T12:56:44.728Z,4.00
2022-11-27T12:59:11.584Z,4.00
2022-11-27T13:01:54.493Z,4.00
2022-11-27T13:04:27.854Z,4.00
2022-11-27T13:07:00.851Z,4.00
2022-11-27T13:09:45.688Z,4.10
2022-11-27T13:12:22.449Z,4.00
2022-11-27T13:15:00.464Z,4.00
2022-11-27T13:17:35.425Z,4.00
2022-11-27T13:20:03.662Z,4.00
2022-11-27T13:23:33.906Z,4.00
2022-11-27T13:26:11.415Z,4.00
2022-11-27T13:29:23.681Z,4.00
2022-11-27T13:31:55.803Z,4.00
2022-11-27T13:34:26.890Z,4.00
2022-11-27T13:37:08.175Z,4.00
2022-11-27T13:39:39.045Z,3.90
2022-11-27T13:42:12.177Z,3.90
2022-11-27T13:44:43.910Z,3.90
2022-11-27T13:47:23.028Z,3.80
2022-11-27T13:50:10.122Z,3.80
2022-11-27T13:52:37.629Z,3.70
2022-11-27T13:55:09.735Z,3.70
2022-11-27T13:57:38.439Z,3.60
2022-11-27T14:00:11.174Z,3.60
2022-11-27T14:02:46.681Z,3.50
2022-11-27T14:05:15.971Z,3.40
2022-11-27T14:07:49.306Z,3.40
2022-11-27T14:10:21.067Z,3.30
2022-11-27T14:13:07.072Z,3.20
2022-11-27T14:15:36.531Z,3.10
2022-11-27T14:18:19.280Z,3.10
2022-11-27T14:20:56.099Z,3.00
2022-11-27T14:23:31.765Z,2.90
2022-11-27T14:26:03.935Z,2.90
2022-11-27T14:28:32.118Z,2.80
2022-11-27T14:31:00.995Z,2.70
2022-11-27T14:33:47.461Z,2.60
2022-11-27T14:36:28.161Z,2.50
2022-11-27T14:38:54.999Z,2.40
2022-11-27T14:41:25.044Z,2.30
2022-11-27T14:44:06.531Z,2.20
2022-11-27T14:46:36.652Z,2.20
2022-11-27T14:49:03.975Z,2.10
2022-11-27T14:51:33.334Z,2.10
2022-11-27T14:54:10.866Z,2.00
2022-11-27T14:56:41.387Z,2.00
2022-11-27T14:59:16.922Z,1.90
2022-11-27T15:01:46.551Z,1.90
2022-11-27T15:04:28.998Z,1.80
2022-11-27T15:06:57.512Z,1.70
2022-11-27T15:09:32.090Z,1.70
2022-11-27T15:12:01.095Z,1.70
2022-11-27T15:14:29.302Z,1.60
2022-11-27T15:16:58.127Z,1.60
2022-11-27T15:19:35.568Z,1.60
2022-11-27T15:22:03.556Z,1.50
2022-11-27T15:24:37.571Z,1.50
2022-11-27T15:27:22.789Z,1.40
2022-11-27T15:29:49.657Z,1.30
2022-11-27T15:32:24.009Z,1.30
2022-11-27T15:34:54.654Z,1.30
2022-11-27T15:37:27.435Z,1.20
2022-11-27T15:39:56.423Z,1.20
2022-11-27T15:42:24.076Z,1.20
2022-11-27T15:44:54.831Z,1.20
2022-11-27T15:47:34.978Z,1.20
2022-11-27T15:50:02.147Z,1.20
2022-11-27T15:52:30.511Z,1.20
2022-11-27T15:54:57.354Z,1.20
2022-11-27T15:57:25.149Z,1.20
2022-11-27T15:59:52.241Z,1.20
2022-11-27T16:02:19.181Z,1.30
2022-11-27T16:04:46.016Z,1.30
2022-11-27T16:07:12.946Z,1.30
2022-11-27T16:09:40.115Z,1.30
2022-11-27T16:12:07.187Z,1.40
2022-11-27T16:14:34.220Z,1.40
2022-11-27T16:17:01.477Z,1.40
2022-11-27T16:19:28.703Z,1.40
2022-11-27T16:21:56.807Z,1.50
2022-11-27T16:24:23.964Z,1.50
2022-11-27T16:26:50.838Z,1.60
2022-11-27T16:29:17.969Z,1.60
2022-11-27T16:31:44.827Z,1.60
2022-11-27T16:34:12.275Z,1.70
2022-11-27T16:36:43.762Z,1.70
2022-11-27T16:39:11.799Z,1.70
2022-11-27T16:41:39.626Z,1.70
2022-11-27T16:44:12.429Z,1.70
2022-11-27T16:46:39.521Z,1.80
2022-11-27T16:49:06.646Z,1.80
2022-11-27T16:51:34.996Z,1.80
2022-11-27T16:54:04.693Z,1.80
2022-11-27T16:56:33.412Z,1.80
2022-11-27T16:59:06.620Z,1.80
2022-11-27T17:01:36.205Z,1.90
2022-11-27T17:04:09.100Z,1.90
2022-11-27T17:06:37.827Z,1.90
2022-11-27T17:09:07.578Z,1.90
2022-11-27T17:11:36.431Z,1.90
2022-11-27T17:14:07.284Z,2.00
2022-11-27T17:16:35.922Z,1.90
2022-11-27T17:19:03.890Z,2.00
2022-11-27T17:21:33.820Z,2.00
2022-11-27T17:24:10.153Z,2.00
2022-11-27T17:26:43.498Z,2.00
2022-11-27T17:29:11.940Z,2.10
2022-11-27T17:31:39.833Z,2.10
2022-11-27T17:34:07.354Z,2.10
2022-11-27T17:36:37.478Z,2.20
2022-11-27T17:39:06.467Z,2.10
2022-11-27T17:41:33.866Z,2.20
2022-11-27T17:44:02.685Z,2.20
2022-11-27T17:46:30.443Z,2.20
2022-11-27T17:49:00.366Z,2.20
2022-11-27T17:51:30.714Z,2.30
2022-11-27T17:54:01.097Z,2.30
2022-11-27T17:56:32.253Z,2.30
2022-11-27T17:59:01.806Z,2.30
2022-11-27T18:01:30.440Z,2.30
2022-11-27T18:04:00.891Z,2.30
2022-11-27T18:06:30.814Z,2.40
2022-11-27T18:08:58.860Z,2.40
2022-11-27T18:11:29.221Z,2.40
2022-11-27T18:13:59.245Z,2.40
2022-11-27T18:16:29.524Z,2.40
2022-11-27T18:18:58.012Z,2.40
2022-11-27T18:21:29.067Z,2.50
2022-11-27T18:29:30.453Z,2.50
2022-11-27T18:31:57.324Z,2.50
2022-11-27T18:34:24.246Z,2.50
2022-11-27T18:36:51.197Z,2.50
2022-11-27T18:39:21.848Z,2.50
2022-11-27T18:41:49.020Z,2.60
2022-11-27T18:44:16.054Z,2.60
2022-11-27T18:46:43.095Z,2.60
2022-11-27T18:49:10.052Z,2.70
2022-11-27T18:51:37.134Z,2.70
2022-11-27T18:54:04.270Z,2.70
2022-11-27T18:56:32.456Z,2.70
2022-11-27T18:59:06.388Z,2.80
2022-11-27T19:01:41.290Z,2.80
2022-11-27T19:04:10.663Z,2.80
2022-11-27T19:06:38.999Z,2.80
2022-11-27T19:40:06.546Z,3.00
2022-11-27T19:42:33.494Z,3.20
2022-11-27T19:45:00.315Z,3.20
2022-11-27T19:47:27.322Z,3.20
2022-11-27T19:49:54.114Z,3.20
2022-11-27T19:52:20.993Z,3.20
2022-11-27T19:54:48.018Z,3.20
2022-11-27T19:57:15.075Z,3.20
2022-11-27T19:59:42.892Z,3.20
2022-11-27T20:02:14.509Z,3.20
2022-11-27T20:04:42.094Z,3.20
2022-11-27T20:07:09.120Z,3.20
2022-11-27T20:09:36.308Z,3.20
2022-11-27T20:12:03.674Z,3.20
2022-11-27T20:14:30.621Z,3.20
2022-11-27T20:16:57.567Z,3.20
2022-11-27T20:19:24.579Z,3.20
2022-11-27T20:21:51.586Z,3.20
2022-11-27T20:24:18.917Z,3.20
2022-11-27T20:26:45.908Z,3.20
2022-11-27T20:29:13.505Z,3.20
2022-11-27T20:31:43.841Z,3.20
2022-11-27T20:34:16.538Z,3.20
2022-11-27T20:36:43.478Z,3.20
2022-11-27T20:39:13.006Z,3.20
2022-11-27T20:41:42.152Z,3.20
2022-11-27T20:44:13.400Z,3.20
2022-11-27T20:46:40.299Z,3.20
2022-11-27T20:49:10.541Z,3.20
2022-11-27T20:51:39.101Z,3.20
2022-11-27T20:54:08.455Z,3.20
2022-11-27T20:56:35.771Z,3.20
2022-11-27T20:59:04.993Z,3.20
2022-11-27T21:01:34.633Z,3.20
2022-11-27T21:04:09.018Z,3.20
2022-11-27T21:06:43.230Z,3.10
2022-11-27T21:09:11.913Z,3.10
2022-11-27T21:11:39.306Z,3.10
2022-11-27T21:14:09.561Z,3.00
2022-11-27T21:16:39.872Z,3.00
2022-11-27T21:19:13.167Z,2.90
2022-11-27T21:21:40.165Z,2.80
2022-11-27T21:24:07.751Z,2.80
2022-11-27T21:26:35.330Z,2.70
2022-11-27T21:29:03.830Z,2.60
2022-11-27T21:31:37.266Z,2.60
2022-11-27T21:34:06.493Z,2.50
2022-11-27T21:36:36.035Z,2.40
2022-11-27T21:39:06.355Z,2.30
2022-11-27T21:41:33.647Z,2.30
2022-11-27T21:44:02.450Z,2.20
2022-11-27T21:46:30.572Z,2.10
2022-11-27T21:49:01.403Z,2.00
2022-11-27T21:51:29.605Z,2.00
2022-11-27T21:53:58.794Z,1.90
2022-11-27T21:56:27.934Z,1.90
2022-11-27T21:58:54.986Z,1.80
2022-11-27T22:01:24.467Z,1.80
2022-11-27T22:03:54.200Z,1.70
2022-11-27T22:06:23.018Z,1.70
2022-11-27T22:08:51.921Z,1.70
2022-11-27T22:11:21.566Z,1.70
2022-11-27T22:13:49.758Z,1.70
2022-11-27T22:16:19.824Z,1.70
2022-11-27T22:18:48.607Z,1.70
2022-11-27T22:21:16.649Z,1.70
2022-11-27T22:23:44.476Z,1.60
2022-11-27T22:26:17.315Z,1.60
2022-11-27T22:28:45.223Z,1.60
2022-11-27T22:31:20.361Z,1.60
2022-11-27T22:33:48.988Z,1.60
2022-11-27T22:36:30.323Z,1.60
2022-11-27T22:38:59.078Z,1.60
2022-11-27T22:41:28.854Z,1.60
2022-11-27T22:43:55.956Z,1.60
2022-11-27T22:46:32.689Z,1.60
2022-11-27T22:49:02.594Z,1.60
2022-11-27T22:51:31.636Z,1.60
2022-11-27T22:53:59.083Z,1.60
2022-11-27T22:56:26.223Z,1.60
2022-11-27T22:59:11.376Z,1.60
2022-11-27T23:01:40.987Z,1.60
2022-11-27T23:04:08.385Z,1.60
2022-11-27T23:06:36.933Z,1.60
2022-11-27T23:09:04.082Z,1.60
2022-11-27T23:11:31.398Z,1.60
2022-11-27T23:13:58.887Z,1.60
2022-11-27T23:16:26.629Z,1.60
2022-11-27T23:18:53.661Z,1.60
2022-11-27T23:21:23.172Z,1.60
2022-11-27T23:23:50.531Z,1.60
2022-11-27T23:26:23.094Z,1.60
2022-11-27T23:28:52.300Z,1.60
2022-11-27T23:31:38.154Z,1.60
2022-11-27T23:34:08.493Z,1.50
2022-11-27T23:36:35.956Z,1.50
2022-11-27T23:39:05.066Z,1.50
2022-11-27T23:41:32.726Z,1.50
2022-11-27T23:43:59.634Z,1.50
2022-11-27T23:46:28.733Z,1.50
2022-11-27T23:48:57.797Z,1.50
2022-11-27T23:51:27.147Z,1.50
2022-11-27T23:53:54.418Z,1.50
2022-11-27T23:56:26.840Z,1.50
2022-11-27T23:58:55.132Z,1.60
